createdAt,value
2018-05-23T00:02:17.754Z,77.46
2018-05-23T00:04:45.924Z,77.64
2018-05-23T00:07:14.078Z,77.93
2018-05-23T00:09:42.276Z,77.86
2018-05-23T00:12:10.441Z,77.88
2018-05-23T00:14:38.711Z,77.93
2018-05-23T00:17:06.860Z,78.17
2018-05-23T00:19:35.071Z,78.20
2018-05-23T00:22:03.233Z,78.07
2018-05-23T00:24:31.465Z,78.25
2018-05-23T00:26:59.635Z,77.91
2018-05-23T00:29:27.843Z,78.28
2018-05-23T00:31:56.596Z,78.07
2018-05-23T00:34:24.812Z,77.87
2018-05-23T00:36:52.990Z,78.01
2018-05-23T00:39:24.014Z,77.87
2018-05-23T00:41:52.161Z,78.12
2018-05-23T00:44:20.371Z,77.89
2018-05-23T00:46:48.539Z,77.65
2018-05-23T00:49:16.718Z,77.71
2018-05-23T00:51:44.879Z,77.62
2018-05-23T00:54:13.072Z,77.82
2018-05-23T00:56:41.237Z,77.84
2018-05-23T00:59:10.012Z,78.02
2018-05-23T01:01:38.185Z,78.25
2018-05-23T01:04:06.449Z,78.29
2018-05-23T01:06:34.642Z,78.17
2018-05-23T01:09:02.786Z,78.37
2018-05-23T01:11:30.999Z,78.12
2018-05-23T01:13:59.154Z,78.20
2018-05-23T01:16:27.360Z,78.00
2018-05-23T01:18:55.507Z,77.80
2018-05-23T01:21:23.722Z,77.59
2018-05-23T01:23:51.885Z,77.52
2018-05-23T01:26:27.023Z,77.48
2018-05-23T01:28:55.191Z,77.38
2018-05-23T01:31:23.401Z,77.28
2018-05-23T01:33:51.570Z,77.21
2018-05-23T01:36:19.779Z,77.17
2018-05-23T01:38:47.969Z,77.20
2018-05-23T01:41:16.153Z,76.98
2018-05-23T01:43:44.355Z,77.21
2018-05-23T01:46:12.540Z,77.06
2018-05-23T01:48:52.523Z,76.94
2018-05-23T01:51:20.674Z,76.87
2018-05-23T01:53:48.864Z,77.08
2018-05-23T01:56:17.035Z,77.12
2018-05-23T01:58:45.231Z,77.18
2018-05-23T02:01:13.441Z,77.15
2018-05-23T02:03:41.625Z,77.13
2018-05-23T02:06:09.782Z,77.33
2018-05-23T02:08:37.982Z,77.19
2018-05-23T02:11:06.193Z,77.49
2018-05-23T02:13:34.381Z,77.25
2018-05-23T02:16:02.547Z,77.13
2018-05-23T02:18:30.736Z,77.09
2018-05-23T02:20:58.909Z,77.14
2018-05-23T02:23:27.105Z,76.89
2018-05-23T02:25:55.319Z,77.01
2018-05-23T02:28:23.516Z,76.86
2018-05-23T02:30:51.687Z,77.06
2018-05-23T02:33:19.909Z,77.23
2018-05-23T02:35:48.062Z,76.90
2018-05-23T02:38:16.265Z,76.60
2018-05-23T02:40:44.442Z,77.19
2018-05-23T02:43:12.599Z,76.83
2018-05-23T02:45:40.787Z,76.90
2018-05-23T02:48:08.969Z,76.63
2018-05-23T02:50:37.186Z,76.93
2018-05-23T02:53:05.360Z,77.14
2018-05-23T02:55:33.580Z,77.22
2018-05-23T02:58:01.755Z,77.23
2018-05-23T03:00:29.963Z,77.42
2018-05-23T03:02:59.223Z,78.03
2018-05-23T03:05:27.840Z,78.06
2018-05-23T03:07:56.093Z,77.97
2018-05-23T03:10:24.285Z,77.74
2018-05-23T03:12:52.491Z,78.10
2018-05-23T03:15:20.658Z,78.34
2018-05-23T03:17:48.810Z,78.87
2018-05-23T03:20:17.008Z,79.33
2018-05-23T03:22:45.173Z,79.43
2018-05-23T03:25:13.326Z,79.88
2018-05-23T03:27:41.522Z,79.73
2018-05-23T03:30:09.674Z,79.61
2018-05-23T03:32:37.876Z,79.54
2018-05-23T03:35:06.045Z,79.68
2018-05-23T03:37:34.234Z,79.79
2018-05-23T03:40:02.408Z,79.86
2018-05-23T03:42:30.659Z,79.80
2018-05-23T03:44:58.858Z,79.94
2018-05-23T03:47:27.063Z,79.79
2018-05-23T03:49:55.242Z,79.90
2018-05-23T03:52:23.426Z,79.71
2018-05-23T03:54:51.722Z,79.89
2018-05-23T03:57:19.905Z,79.88
2018-05-23T03:59:59.932Z,79.95
2018-05-23T04:02:40.014Z,80.11
2018-05-23T04:05:19.910Z,80.10
2018-05-23T04:07:48.113Z,80.30
2018-05-23T04:10:16.275Z,80.42
2018-05-23T04:12:44.441Z,80.38
2018-05-23T04:15:12.632Z,80.21
2018-05-23T04:17:40.795Z,79.91
2018-05-23T04:20:08.986Z,79.67
2018-05-23T04:22:37.172Z,79.72
2018-05-23T04:25:05.355Z,79.69
2018-05-23T04:27:33.538Z,79.42
2018-05-23T04:30:14.364Z,79.12
2018-05-23T04:32:43.215Z,79.24
2018-05-23T04:35:11.392Z,79.40
2018-05-23T04:37:39.569Z,79.30
2018-05-23T04:40:07.773Z,79.28
2018-05-23T04:42:35.933Z,79.20
2018-05-23T04:45:04.125Z,79.36
2018-05-23T04:47:32.325Z,79.48
2018-05-23T04:50:00.507Z,79.31
2018-05-23T04:52:31.227Z,79.57
2018-05-23T04:54:59.405Z,79.31
2018-05-23T04:57:27.609Z,79.27
2018-05-23T04:59:55.801Z,79.30
2018-05-23T05:02:24.021Z,79.37
2018-05-23T05:04:52.221Z,79.43
2018-05-23T05:07:20.375Z,79.18
2018-05-23T05:09:48.579Z,78.99
2018-05-23T05:12:16.800Z,78.98
2018-05-23T05:14:57.521Z,78.91
2018-05-23T05:17:28.764Z,78.48
2018-05-23T05:20:00.899Z,78.18
2018-05-23T05:22:29.060Z,77.89
2018-05-23T05:24:57.347Z,77.69
2018-05-23T05:27:25.497Z,77.45
2018-05-23T05:29:53.677Z,77.66
2018-05-23T05:32:21.884Z,77.56
2018-05-23T05:34:50.034Z,77.51
2018-05-23T05:37:19.410Z,76.99
2018-05-23T05:39:47.655Z,77.02
2018-05-23T05:42:15.853Z,76.95
2018-05-23T05:44:44.021Z,76.30
2018-05-23T05:47:14.683Z,76.24
2018-05-23T05:49:48.460Z,75.67
2018-05-23T05:52:22.477Z,75.58
2018-05-23T05:54:55.890Z,75.46
2018-05-23T05:57:49.297Z,75.29
2018-05-23T06:00:18.501Z,75.07
2018-05-23T06:02:46.741Z,75.02
2018-05-23T06:05:14.931Z,74.88
2018-05-23T06:07:43.097Z,74.96
2018-05-23T06:10:11.312Z,74.80
2018-05-23T06:12:39.479Z,74.65
2018-05-23T06:15:07.649Z,74.59
2018-05-23T06:17:35.864Z,75.46
2018-05-23T06:20:04.066Z,75.03
2018-05-23T06:22:32.232Z,75.28
2018-05-23T06:25:00.442Z,75.04
2018-05-23T06:27:28.659Z,74.37
2018-05-23T06:30:02.793Z,74.35
2018-05-23T06:32:39.345Z,73.38
2018-05-23T06:35:12.334Z,73.08
2018-05-23T06:37:43.572Z,72.89
2018-05-23T06:40:22.032Z,72.21
2018-05-23T06:43:07.017Z,71.97
2018-05-23T06:45:39.769Z,72.05
2018-05-23T06:48:21.406Z,71.36
2018-05-23T06:50:58.389Z,70.59
2018-05-23T06:53:40.278Z,70.23
2018-05-23T06:56:16.456Z,69.85
2018-05-23T06:58:52.953Z,69.18
2018-05-23T07:01:30.514Z,68.17
2018-05-23T07:04:01.830Z,68.42
2018-05-23T07:06:30.466Z,68.59
2018-05-23T07:09:00.006Z,68.14
2018-05-23T07:11:30.658Z,68.06
2018-05-23T07:14:04.035Z,67.79
2018-05-23T07:16:32.927Z,67.56
2018-05-23T07:19:10.026Z,66.80
2018-05-23T07:21:44.776Z,66.05
2018-05-23T07:24:15.943Z,65.86
2018-05-23T07:26:55.501Z,66.17
2018-05-23T07:29:37.431Z,64.69
2018-05-23T07:32:15.217Z,64.38
2018-05-23T07:34:56.350Z,63.71
2018-05-23T07:37:33.188Z,63.71
2018-05-23T07:40:08.657Z,63.12
2018-05-23T07:42:43.487Z,62.59
2018-05-23T07:45:17.733Z,62.49
2018-05-23T07:47:53.521Z,61.04
2018-05-23T07:50:21.712Z,61.87
2018-05-23T07:53:02.004Z,60.80
2018-05-23T07:55:41.628Z,60.77
2018-05-23T07:58:15.874Z,59.96
2018-05-23T08:01:01.240Z,59.63
2018-05-23T08:03:37.863Z,59.37
2018-05-23T08:06:09.595Z,58.90
2018-05-23T08:08:41.182Z,57.76
2018-05-23T08:11:17.309Z,56.30
2018-05-23T08:13:48.294Z,55.59
2018-05-23T08:16:33.228Z,54.56
2018-05-23T08:19:09.187Z,54.09
2018-05-23T08:21:43.549Z,53.18
2018-05-23T08:24:20.859Z,53.22
2018-05-23T08:27:04.679Z,53.94
2018-05-23T08:29:37.626Z,52.64
2018-05-23T08:32:21.883Z,52.17
2018-05-23T08:35:00.814Z,52.07
2018-05-23T08:37:34.850Z,51.75
2018-05-23T08:40:09.165Z,51.27
2018-05-23T08:42:41.392Z,51.37
2018-05-23T08:45:21.808Z,51.26
2018-05-23T08:48:01.131Z,51.17
2018-05-23T08:50:41.022Z,51.79
2018-05-23T08:53:27.376Z,50.83
2018-05-23T08:56:11.384Z,50.38
2018-05-23T08:58:47.058Z,50.98
2018-05-23T09:01:30.906Z,50.47
2018-05-23T09:04:10.529Z,49.93
2018-05-23T09:06:40.828Z,49.83
2018-05-23T09:09:14.578Z,50.45
2018-05-23T09:11:53.870Z,51.27
2018-05-23T09:14:26.707Z,51.82
2018-05-23T09:17:03.371Z,52.27
2018-05-23T09:19:35.436Z,52.08
2018-05-23T09:22:11.248Z,50.84
2018-05-23T09:24:44.766Z,50.01
2018-05-23T09:27:22.576Z,50.06
2018-05-23T09:29:57.522Z,50.55
2018-05-23T09:32:38.537Z,49.16
2018-05-23T09:35:11.077Z,49.37
2018-05-23T09:37:42.132Z,48.68
2018-05-23T09:40:17.673Z,47.70
2018-05-23T09:42:59.854Z,47.04
2018-05-23T09:45:38.532Z,47.55
2018-05-23T09:48:10.408Z,46.93
2018-05-23T09:50:44.760Z,48.13
2018-05-23T09:53:24.951Z,47.38
2018-05-23T09:56:01.656Z,48.08
2018-05-23T09:58:44.064Z,48.20
2018-05-23T10:01:18.790Z,48.06
2018-05-23T10:03:57.010Z,48.87
2018-05-23T10:06:33.984Z,48.29
2018-05-23T10:09:20.338Z,47.85
2018-05-23T10:11:56.867Z,47.80
2018-05-23T10:14:37.483Z,49.05
2018-05-23T10:17:20.115Z,49.49
2018-05-23T10:19:57.308Z,48.48
2018-05-23T10:22:33.715Z,48.95
2018-05-23T10:25:14.049Z,49.22
2018-05-23T10:27:47.364Z,48.82
2018-05-23T10:30:21.666Z,48.59
2018-05-23T10:32:51.417Z,48.21
2018-05-23T10:35:19.587Z,48.03
2018-05-23T10:37:47.741Z,48.30
2018-05-23T10:40:15.939Z,48.00
2018-05-23T10:42:44.114Z,45.56
2018-05-23T10:45:12.287Z,42.74
2018-05-23T10:47:40.462Z,41.76
2018-05-23T10:50:08.638Z,41.60
2018-05-23T10:52:36.828Z,40.53
2018-05-23T10:55:05.056Z,40.27
2018-05-23T10:57:33.213Z,40.15
2018-05-23T11:00:01.431Z,39.65
2018-05-23T11:02:29.595Z,39.72
2018-05-23T11:04:57.758Z,40.12
2018-05-23T11:07:25.924Z,40.07
2018-05-23T11:09:54.122Z,40.29
2018-05-23T11:12:22.277Z,41.68
2018-05-23T11:14:50.577Z,40.37
2018-05-23T11:17:18.722Z,41.21
2018-05-23T11:19:46.931Z,40.92
2018-05-23T11:22:15.122Z,41.04
2018-05-23T11:24:43.267Z,41.83
2018-05-23T11:27:11.429Z,42.16
2018-05-23T11:29:39.651Z,43.16
2018-05-23T11:32:07.770Z,42.42
2018-05-23T11:34:35.945Z,42.27
2018-05-23T11:37:04.130Z,43.02
2018-05-23T11:39:33.634Z,42.79
2018-05-23T11:42:01.811Z,44.07
2018-05-23T11:44:30.086Z,44.88
2018-05-23T11:46:58.248Z,46.21
2018-05-23T11:49:26.437Z,47.00
2018-05-23T11:51:54.581Z,49.38
2018-05-23T11:54:22.764Z,51.56
2018-05-23T11:56:50.918Z,54.30
2018-05-23T11:59:19.104Z,55.71
2018-05-23T12:01:47.341Z,56.43
2018-05-23T12:04:15.484Z,56.24
2018-05-23T12:06:43.651Z,55.75
2018-05-23T12:09:11.918Z,54.71
2018-05-23T12:11:40.093Z,54.27
2018-05-23T12:14:08.337Z,53.33
2018-05-23T12:16:36.491Z,54.57
2018-05-23T12:19:04.657Z,53.76
2018-05-23T12:21:32.857Z,53.05
2018-05-23T12:24:01.921Z,53.14
2018-05-23T12:26:30.095Z,53.04
2018-05-23T12:28:58.278Z,53.12
2018-05-23T12:31:26.451Z,50.96
2018-05-23T12:33:54.619Z,51.10
2018-05-23T12:36:22.809Z,50.99
2018-05-23T12:38:50.989Z,50.64
2018-05-23T12:41:19.141Z,49.53
2018-05-23T12:43:47.327Z,48.82
2018-05-23T12:46:15.534Z,48.72
2018-05-23T12:48:43.671Z,48.65
2018-05-23T12:51:11.834Z,49.34
2018-05-23T12:53:40.020Z,50.52
2018-05-23T12:56:08.195Z,52.85
2018-05-23T12:58:36.372Z,54.05
2018-05-23T13:01:04.521Z,54.13
2018-05-23T13:03:32.684Z,54.98
2018-05-23T13:06:00.850Z,55.54
2018-05-23T13:08:29.009Z,56.19
2018-05-23T13:10:57.219Z,56.88
2018-05-23T13:13:25.379Z,54.37
2018-05-23T13:15:53.654Z,54.06
2018-05-23T13:18:21.800Z,54.11
2018-05-23T13:20:49.983Z,53.16
2018-05-23T13:23:18.178Z,52.52
2018-05-23T13:25:46.359Z,50.67
2018-05-23T13:28:14.508Z,49.24
2018-05-23T13:30:42.684Z,50.18
2018-05-23T13:33:10.838Z,50.62
2018-05-23T13:35:39.051Z,51.76
2018-05-23T13:38:07.207Z,51.30
2018-05-23T13:40:35.410Z,49.72
2018-05-23T13:43:03.564Z,48.06
2018-05-23T13:45:31.745Z,45.74
2018-05-23T13:48:00.730Z,45.95
2018-05-23T13:50:28.899Z,44.05
2018-05-23T13:52:57.059Z,42.14
2018-05-23T13:55:26.176Z,41.76
2018-05-23T13:57:54.362Z,41.28
2018-05-23T14:00:22.532Z,38.52
2018-05-23T14:02:50.682Z,38.66
2018-05-23T14:05:18.833Z,39.24
2018-05-23T14:07:47.044Z,38.26
2018-05-23T14:10:15.201Z,37.66
2018-05-23T14:12:43.418Z,37.37
2018-05-23T14:15:11.592Z,37.52
2018-05-23T14:17:39.755Z,37.06
2018-05-23T14:20:07.988Z,37.66
2018-05-23T14:22:36.143Z,38.69
2018-05-23T14:25:04.426Z,39.56
2018-05-23T14:27:32.591Z,39.31
2018-05-23T14:30:00.765Z,39.02
2018-05-23T14:32:28.929Z,40.63
2018-05-23T14:34:57.084Z,41.69
2018-05-23T14:37:25.300Z,41.94
2018-05-23T14:39:54.381Z,42.00
2018-05-23T14:42:22.557Z,41.09
2018-05-23T14:44:50.712Z,41.92
2018-05-23T14:47:18.907Z,40.94
2018-05-23T14:49:47.090Z,41.63
2018-05-23T14:52:15.263Z,41.16
2018-05-23T14:54:43.464Z,40.74
2018-05-23T14:57:11.637Z,39.08
2018-05-23T14:59:39.891Z,37.96
2018-05-23T15:02:08.092Z,37.49
2018-05-23T15:04:36.283Z,36.79
2018-05-23T15:07:04.438Z,36.41
2018-05-23T15:09:32.621Z,37.65
2018-05-23T15:12:00.787Z,36.37
2018-05-23T15:14:29.082Z,36.15
2018-05-23T15:16:57.223Z,35.73
2018-05-23T15:19:25.461Z,35.80
2018-05-23T15:21:53.639Z,36.13
2018-05-23T15:24:21.818Z,35.39
2018-05-23T15:26:49.986Z,35.91
2018-05-23T15:29:18.175Z,35.11
2018-05-23T15:31:46.356Z,34.61
2018-05-23T15:34:14.507Z,34.74
2018-05-23T15:36:42.698Z,34.48
2018-05-23T15:39:10.853Z,33.57
2018-05-23T15:41:39.127Z,33.32
2018-05-23T15:44:07.259Z,33.21
2018-05-23T15:46:35.468Z,34.28
2018-05-23T15:49:03.667Z,33.13
2018-05-23T15:51:31.865Z,33.57
2018-05-23T15:54:00.020Z,34.28
2018-05-23T15:56:28.948Z,33.77
2018-05-23T15:58:57.091Z,34.24
2018-05-23T16:01:25.264Z,34.77
2018-05-23T16:03:53.455Z,35.12
2018-05-23T16:06:21.622Z,35.99
2018-05-23T16:08:49.758Z,36.62
2018-05-23T16:11:17.940Z,37.56
2018-05-23T16:13:46.133Z,38.98
2018-05-23T16:16:15.369Z,39.91
2018-05-23T16:18:43.529Z,40.35
2018-05-23T16:21:11.712Z,41.21
2018-05-23T16:23:39.891Z,41.94
2018-05-23T16:26:08.045Z,41.96
2018-05-23T16:28:36.248Z,42.43
2018-05-23T16:31:04.390Z,42.58
2018-05-23T16:33:32.576Z,42.88
2018-05-23T16:36:00.805Z,43.64
2018-05-23T16:38:28.982Z,43.52
2018-05-23T16:40:57.164Z,43.46
2018-05-23T16:43:25.332Z,43.96
2018-05-23T16:45:53.529Z,43.79
2018-05-23T16:48:21.733Z,44.04
2018-05-23T16:50:49.893Z,44.02
2018-05-23T16:53:18.080Z,44.17
2018-05-23T16:55:46.238Z,44.22
2018-05-23T16:58:14.394Z,44.65
2018-05-23T17:00:42.563Z,44.50
2018-05-23T17:03:10.745Z,44.53
2018-05-23T17:05:38.889Z,44.26
2018-05-23T17:08:07.072Z,43.90
2018-05-23T17:10:35.323Z,43.41
2018-05-23T17:13:03.667Z,42.82
2018-05-23T17:15:31.872Z,43.07
2018-05-23T17:18:00.034Z,42.81
2018-05-23T17:20:28.183Z,42.57
2018-05-23T17:22:56.391Z,41.96
2018-05-23T17:25:24.562Z,41.31
2018-05-23T17:27:52.715Z,40.97
2018-05-23T17:30:20.900Z,40.05
2018-05-23T17:32:49.112Z,39.65
2018-05-23T17:35:17.341Z,39.74
2018-05-23T17:37:45.486Z,39.60
2018-05-23T17:40:13.799Z,38.89
2018-05-23T17:42:41.945Z,38.65
2018-05-23T17:45:10.105Z,38.77
2018-05-23T17:47:38.329Z,38.65
2018-05-23T17:50:06.517Z,38.49
2018-05-23T17:52:34.699Z,38.84
2018-05-23T17:55:02.875Z,39.12
2018-05-23T17:57:31.033Z,39.62
2018-05-23T17:59:59.204Z,39.56
2018-05-23T18:02:27.361Z,39.43
2018-05-23T18:04:55.537Z,38.96
2018-05-23T18:07:23.734Z,39.40
2018-05-23T18:09:51.906Z,39.48
2018-05-23T18:12:20.066Z,39.93
2018-05-23T18:14:48.211Z,39.94
2018-05-23T18:17:16.416Z,39.33
2018-05-23T18:19:44.590Z,39.36
2018-05-23T18:22:12.769Z,39.67
2018-05-23T18:24:40.940Z,40.09
2018-05-23T18:27:09.175Z,39.83
2018-05-23T18:29:37.366Z,39.08
2018-05-23T18:32:05.560Z,39.33
2018-05-23T18:34:33.789Z,39.48
2018-05-23T18:37:01.990Z,39.59
2018-05-23T18:39:30.155Z,39.82
2018-05-23T18:41:58.303Z,39.93
2018-05-23T18:44:26.483Z,39.81
2018-05-23T18:46:54.631Z,40.19
2018-05-23T18:49:22.819Z,40.40
2018-05-23T18:51:51.022Z,40.76
2018-05-23T18:54:19.283Z,40.66
2018-05-23T18:56:47.418Z,40.51
2018-05-23T18:59:15.618Z,40.44
2018-05-23T19:01:43.795Z,40.50
2018-05-23T19:04:11.981Z,40.84
2018-05-23T19:06:40.123Z,40.87
2018-05-23T19:09:08.309Z,41.28
2018-05-23T19:11:36.483Z,41.56
2018-05-23T19:14:04.685Z,41.97
2018-05-23T19:16:32.871Z,42.13
2018-05-23T19:19:01.681Z,42.36
2018-05-23T19:21:30.156Z,43.01
2018-05-23T19:23:59.918Z,42.59
2018-05-23T19:26:31.520Z,42.64
2018-05-23T19:28:59.917Z,42.35
2018-05-23T19:31:28.404Z,43.13
2018-05-23T19:33:56.917Z,43.14
2018-05-23T19:36:25.427Z,42.84
2018-05-23T19:38:54.555Z,42.68
2018-05-23T19:41:23.130Z,42.40
2018-05-23T19:43:51.514Z,42.58
2018-05-23T19:46:20.087Z,42.55
2018-05-23T19:48:48.542Z,42.67
2018-05-23T19:51:17.025Z,43.04
2018-05-23T19:53:45.283Z,42.52
2018-05-23T19:56:13.478Z,42.76
2018-05-23T19:58:41.685Z,42.29
2018-05-23T20:01:09.887Z,42.67
2018-05-23T20:03:38.091Z,42.31
2018-05-23T20:06:06.273Z,43.03
2018-05-23T20:08:34.452Z,42.47
2018-05-23T20:11:02.633Z,42.71
2018-05-23T20:13:30.812Z,43.30
2018-05-23T20:15:59.001Z,43.16
2018-05-23T20:18:27.199Z,43.08
2018-05-23T20:20:55.452Z,43.23
2018-05-23T20:23:23.623Z,43.19
2018-05-23T20:25:51.810Z,43.88
2018-05-23T20:28:20.012Z,43.60
2018-05-23T20:30:48.152Z,43.62
2018-05-23T20:33:16.343Z,43.22
2018-05-23T20:35:44.485Z,43.44
2018-05-23T20:38:13.223Z,43.21
2018-05-23T20:40:41.413Z,43.16
2018-05-23T20:43:09.579Z,43.99
2018-05-23T20:45:37.733Z,43.93
2018-05-23T20:48:05.932Z,43.61
2018-05-23T20:50:34.098Z,43.82
2018-05-23T20:53:02.273Z,44.27
2018-05-23T20:55:30.445Z,43.47
2018-05-23T20:57:58.604Z,44.33
2018-05-23T21:00:26.807Z,43.83
2018-05-23T21:02:54.968Z,44.00
2018-05-23T21:05:23.186Z,44.02
2018-05-23T21:07:51.366Z,44.34
2018-05-23T21:10:19.525Z,44.70
2018-05-23T21:12:47.714Z,44.64
2018-05-23T21:15:15.860Z,44.79
2018-05-23T21:17:44.052Z,45.55
2018-05-23T21:20:12.223Z,44.93
2018-05-23T21:22:40.390Z,44.63
2018-05-23T21:25:08.581Z,44.70
2018-05-23T21:27:36.738Z,44.85
2018-05-23T21:30:04.910Z,44.81
2018-05-23T21:32:33.087Z,45.00
2018-05-23T21:35:01.246Z,45.13
2018-05-23T21:37:29.451Z,44.82
2018-05-23T21:39:57.614Z,44.92
2018-05-23T21:42:25.810Z,45.04
2018-05-23T21:44:54.006Z,45.37
2018-05-23T21:47:22.165Z,45.13
2018-05-23T21:49:50.335Z,45.58
2018-05-23T21:52:18.549Z,45.27
2018-05-23T21:54:46.724Z,45.33
2018-05-23T21:57:14.875Z,45.19
2018-05-23T21:59:43.628Z,44.96
2018-05-23T22:02:11.788Z,44.89
2018-05-23T22:04:39.988Z,44.75
2018-05-23T22:07:08.148Z,44.61
2018-05-23T22:09:36.315Z,44.77
2018-05-23T22:12:04.528Z,45.24
2018-05-23T22:14:32.688Z,44.94
2018-05-23T22:17:00.838Z,44.96
2018-05-23T22:19:29.013Z,44.96
2018-05-23T22:21:57.169Z,45.02
2018-05-23T22:24:25.366Z,45.37
2018-05-23T22:26:53.545Z,44.66
2018-05-23T22:29:21.705Z,44.41
2018-05-23T22:31:49.895Z,44.84
2018-05-23T22:34:18.032Z,44.71
2018-05-23T22:36:46.209Z,44.76
2018-05-23T22:39:14.398Z,44.78
2018-05-23T22:41:54.964Z,45.17
2018-05-23T22:44:28.117Z,44.94
2018-05-23T22:46:56.290Z,45.14
2018-05-23T22:49:24.502Z,45.02
2018-05-23T22:51:52.666Z,45.08
2018-05-23T22:54:20.838Z,45.04
2018-05-23T22:56:49.007Z,45.19
2018-05-23T22:59:17.196Z,45.22
2018-05-23T23:01:45.358Z,44.87
2018-05-23T23:04:13.540Z,44.95
2018-05-23T23:06:43.078Z,45.56
2018-05-23T23:09:12.116Z,45.43
2018-05-23T23:11:40.617Z,45.30
2018-05-23T23:14:08.802Z,45.55
2018-05-23T23:16:37.001Z,45.66
2018-05-23T23:19:05.157Z,45.52
2018-05-23T23:21:33.369Z,46.19
2018-05-23T23:24:02.369Z,45.70
2018-05-23T23:26:30.555Z,45.75
2018-05-23T23:28:58.732Z,45.42
2018-05-23T23:31:26.906Z,45.56
2018-05-23T23:33:55.887Z,45.79
2018-05-23T23:36:24.065Z,46.05
2018-05-23T23:38:52.275Z,46.07
2018-05-23T23:41:20.457Z,46.06
2018-05-23T23:43:48.669Z,46.00
2018-05-23T23:46:16.846Z,46.32
2018-05-23T23:48:45.072Z,46.18
2018-05-23T23:51:13.265Z,46.45
2018-05-23T23:53:41.456Z,46.29
2018-05-23T23:56:09.623Z,46.20
2018-05-23T23:58:37.798Z,46.19
